sensor_id;sensor_type;location;lat;lon;timestamp;P1;durP1;ratioP1;P2;durP2;ratioP2
17848;SDS011;9050;48.746;9.232;2022-07-06T00:01:22;0.20;;;0.20;;
17848;SDS011;9050;48.746;9.232;2022-07-06T00:03:49;0.30;;;0.30;;
17848;SDS011;9050;48.746;9.232;2022-07-06T00:06:16;0.30;;;0.30;;
17848;SDS011;9050;48.746;9.232;2022-07-06T00:08:43;0.30;;;0.30;;
17848;SDS011;9050;48.746;9.232;2022-07-06T00:11:11;0.30;;;0.30;;
17848;SDS011;9050;48.746;9.232;2022-07-06T00:13:39;0.30;;;0.30;;
17848;SDS011;9050;48.746;9.232;2022-07-06T00:16:06;0.30;;;0.30;;
17848;SDS011;9050;48.746;9.232;2022-07-06T00:18:33;0.30;;;0.30;;
17848;SDS011;9050;48.746;9.232;2022-07-06T00:21:00;0.30;;;0.30;;
17848;SDS011;9050;48.746;9.232;2022-07-06T00:23:27;0.30;;;0.30;;
17848;SDS011;9050;48.746;9.232;2022-07-06T00:25:54;0.30;;;0.30;;
17848;SDS011;9050;48.746;9.232;2022-07-06T00:28:22;0.30;;;0.30;;
17848;SDS011;9050;48.746;9.232;2022-07-06T00:30:49;0.20;;;0.20;;
17848;SDS011;9050;48.746;9.232;2022-07-06T00:33:16;0.20;;;0.20;;
17848;SDS011;9050;48.746;9.232;2022-07-06T00:35:43;0.30;;;0.30;;
17848;SDS011;9050;48.746;9.232;2022-07-06T00:38:10;0.30;;;0.30;;
17848;SDS011;9050;48.746;9.232;2022-07-06T00:40:37;0.30;;;0.30;;
17848;SDS011;9050;48.746;9.232;2022-07-06T00:43:04;0.30;;;0.30;;
17848;SDS011;9050;48.746;9.232;2022-07-06T00:45:32;0.30;;;0.30;;
17848;SDS011;9050;48.746;9.232;2022-07-06T00:47:59;0.20;;;0.20;;
17848;SDS011;9050;48.746;9.232;2022-07-06T00:50:26;0.40;;;0.40;;
17848;SDS011;9050;48.746;9.232;2022-07-06T00:52:54;0.30;;;0.30;;
17848;SDS011;9050;48.746;9.232;2022-07-06T00:55:22;0.30;;;0.30;;
17848;SDS011;9050;48.746;9.232;2022-07-06T00:57:51;0.30;;;0.30;;
17848;SDS011;9050;48.746;9.232;2022-07-06T01:00:19;0.30;;;0.30;;
17848;SDS011;9050;48.746;9.232;2022-07-06T01:02:49;0.30;;;0.30;;
17848;SDS011;9050;48.746;9.232;2022-07-06T01:05:17;0.20;;;0.20;;
17848;SDS011;9050;48.746;9.232;2022-07-06T01:07:45;0.20;;;0.20;;
17848;SDS011;9050;48.746;9.232;2022-07-06T01:10:14;0.30;;;0.30;;
17848;SDS011;9050;48.746;9.232;2022-07-06T01:12:43;0.30;;;0.30;;
17848;SDS011;9050;48.746;9.232;2022-07-06T01:15:12;0.30;;;0.30;;
17848;SDS011;9050;48.746;9.232;2022-07-06T01:17:40;0.30;;;0.30;;
17848;SDS011;9050;48.746;9.232;2022-07-06T01:20:10;0.30;;;0.30;;
17848;SDS011;9050;48.746;9.232;2022-07-06T01:22:37;0.20;;;0.20;;
17848;SDS011;9050;48.746;9.232;2022-07-06T01:25:05;0.20;;;0.20;;
17848;SDS011;9050;48.746;9.232;2022-07-06T01:27:34;0.30;;;0.30;;
17848;SDS011;9050;48.746;9.232;2022-07-06T01:30:04;0.30;;;0.30;;
17848;SDS011;9050;48.746;9.232;2022-07-06T01:32:32;0.30;;;0.30;;
17848;SDS011;9050;48.746;9.232;2022-07-06T01:34:59;0.30;;;0.30;;
17848;SDS011;9050;48.746;9.232;2022-07-06T01:37:28;0.30;;;0.30;;
17848;SDS011;9050;48.746;9.232;2022-07-06T01:39:57;0.30;;;0.30;;
17848;SDS011;9050;48.746;9.232;2022-07-06T01:42:25;0.30;;;0.30;;
17848;SDS011;9050;48.746;9.232;2022-07-06T01:44:52;0.20;;;0.20;;
17848;SDS011;9050;48.746;9.232;2022-07-06T01:47:19;0.25;;;0.25;;
17848;SDS011;9050;48.746;9.232;2022-07-06T01:49:46;0.28;;;0.28;;
17848;SDS011;9050;48.746;9.232;2022-07-06T01:52:13;0.30;;;0.30;;
17848;SDS011;9050;48.746;9.232;2022-07-06T01:54:41;0.30;;;0.30;;
17848;SDS011;9050;48.746;9.232;2022-07-06T01:57:08;0.28;;;0.28;;
17848;SDS011;9050;48.746;9.232;2022-07-06T01:59:35;0.30;;;0.30;;
17848;SDS011;9050;48.746;9.232;2022-07-06T02:02:02;0.30;;;0.30;;
17848;SDS011;9050;48.746;9.232;2022-07-06T02:04:29;0.20;;;0.20;;
17848;SDS011;9050;48.746;9.232;2022-07-06T02:06:57;0.30;;;0.30;;
17848;SDS011;9050;48.746;9.232;2022-07-06T02:09:23;0.20;;;0.20;;
17848;SDS011;9050;48.746;9.232;2022-07-06T02:11:52;0.22;;;0.22;;
17848;SDS011;9050;48.746;9.232;2022-07-06T02:14:19;0.40;;;0.40;;
17848;SDS011;9050;48.746;9.232;2022-07-06T02:16:46;0.30;;;0.30;;
17848;SDS011;9050;48.746;9.232;2022-07-06T02:19:13;0.30;;;0.30;;
17848;SDS011;9050;48.746;9.232;2022-07-06T02:21:40;0.30;;;0.30;;
17848;SDS011;9050;48.746;9.232;2022-07-06T02:24:07;0.30;;;0.30;;
17848;SDS011;9050;48.746;9.232;2022-07-06T02:26:33;0.30;;;0.30;;
17848;SDS011;9050;48.746;9.232;2022-07-06T02:29:02;0.30;;;0.30;;
17848;SDS011;9050;48.746;9.232;2022-07-06T02:31:29;0.40;;;0.40;;
17848;SDS011;9050;48.746;9.232;2022-07-06T02:33:56;0.30;;;0.30;;
17848;SDS011;9050;48.746;9.232;2022-07-06T02:36:22;0.40;;;0.40;;
17848;SDS011;9050;48.746;9.232;2022-07-06T02:38:49;0.30;;;0.30;;
17848;SDS011;9050;48.746;9.232;2022-07-06T02:41:16;0.40;;;0.40;;
17848;SDS011;9050;48.746;9.232;2022-07-06T02:43:43;0.40;;;0.40;;
17848;SDS011;9050;48.746;9.232;2022-07-06T02:46:12;0.30;;;0.30;;
17848;SDS011;9050;48.746;9.232;2022-07-06T02:48:39;0.30;;;0.30;;
17848;SDS011;9050;48.746;9.232;2022-07-06T02:51:06;0.30;;;0.30;;
17848;SDS011;9050;48.746;9.232;2022-07-06T02:53:33;0.30;;;0.30;;
17848;SDS011;9050;48.746;9.232;2022-07-06T02:56:00;0.30;;;0.30;;
17848;SDS011;9050;48.746;9.232;2022-07-06T02:58:26;0.30;;;0.30;;
17848;SDS011;9050;48.746;9.232;2022-07-06T03:00:54;0.40;;;0.40;;
17848;SDS011;9050;48.746;9.232;2022-07-06T03:03:22;0.40;;;0.40;;
17848;SDS011;9050;48.746;9.232;2022-07-06T03:05:49;0.40;;;0.40;;
17848;SDS011;9050;48.746;9.232;2022-07-06T03:08:16;0.30;;;0.30;;
17848;SDS011;9050;48.746;9.232;2022-07-06T03:10:43;0.33;;;0.33;;
17848;SDS011;9050;48.746;9.232;2022-07-06T03:13:10;0.40;;;0.40;;
17848;SDS011;9050;48.746;9.232;2022-07-06T03:15:37;0.30;;;0.30;;
17848;SDS011;9050;48.746;9.232;2022-07-06T03:18:04;0.40;;;0.40;;
17848;SDS011;9050;48.746;9.232;2022-07-06T03:20:32;0.30;;;0.30;;
17848;SDS011;9050;48.746;9.232;2022-07-06T03:22:59;0.40;;;0.40;;
17848;SDS011;9050;48.746;9.232;2022-07-06T03:25:26;0.40;;;0.40;;
17848;SDS011;9050;48.746;9.232;2022-07-06T03:27:53;0.30;;;0.30;;
17848;SDS011;9050;48.746;9.232;2022-07-06T03:30:20;0.30;;;0.30;;
17848;SDS011;9050;48.746;9.232;2022-07-06T03:32:47;0.35;;;0.35;;
17848;SDS011;9050;48.746;9.232;2022-07-06T03:35:14;0.40;;;0.40;;
17848;SDS011;9050;48.746;9.232;2022-07-06T03:37:42;0.40;;;0.40;;
17848;SDS011;9050;48.746;9.232;2022-07-06T03:40:10;0.40;;;0.40;;
17848;SDS011;9050;48.746;9.232;2022-07-06T03:42:38;0.40;;;0.40;;
17848;SDS011;9050;48.746;9.232;2022-07-06T03:45:06;0.30;;;0.30;;
17848;SDS011;9050;48.746;9.232;2022-07-06T03:47:34;0.40;;;0.40;;
17848;SDS011;9050;48.746;9.232;2022-07-06T03:50:01;0.37;;;0.37;;
17848;SDS011;9050;48.746;9.232;2022-07-06T03:52:27;0.37;;;0.37;;
17848;SDS011;9050;48.746;9.232;2022-07-06T03:54:56;0.30;;;0.30;;
17848;SDS011;9050;48.746;9.232;2022-07-06T03:57:23;0.40;;;0.40;;
17848;SDS011;9050;48.746;9.232;2022-07-06T03:59:50;0.40;;;0.40;;
17848;SDS011;9050;48.746;9.232;2022-07-06T04:02:17;0.40;;;0.40;;
17848;SDS011;9050;48.746;9.232;2022-07-06T04:04:44;0.30;;;0.30;;
17848;SDS011;9050;48.746;9.232;2022-07-06T04:07:11;0.32;;;0.32;;
17848;SDS011;9050;48.746;9.232;2022-07-06T04:09:38;0.40;;;0.40;;
17848;SDS011;9050;48.746;9.232;2022-07-06T04:12:07;0.40;;;0.40;;
17848;SDS011;9050;48.746;9.232;2022-07-06T04:14:34;0.30;;;0.30;;
17848;SDS011;9050;48.746;9.232;2022-07-06T04:17:01;0.30;;;0.30;;
17848;SDS011;9050;48.746;9.232;2022-07-06T04:19:49;0.30;;;0.30;;
17848;SDS011;9050;48.746;9.232;2022-07-06T04:22:16;0.30;;;0.30;;
17848;SDS011;9050;48.746;9.232;2022-07-06T04:24:43;0.30;;;0.30;;
17848;SDS011;9050;48.746;9.232;2022-07-06T04:27:11;0.30;;;0.30;;
17848;SDS011;9050;48.746;9.232;2022-07-06T04:29:38;0.20;;;0.20;;
17848;SDS011;9050;48.746;9.232;2022-07-06T04:32:06;0.37;;;0.37;;
17848;SDS011;9050;48.746;9.232;2022-07-06T04:34:33;0.40;;;0.40;;
17848;SDS011;9050;48.746;9.232;2022-07-06T04:36:59;0.30;;;0.30;;
17848;SDS011;9050;48.746;9.232;2022-07-06T04:39:26;0.30;;;0.30;;
17848;SDS011;9050;48.746;9.232;2022-07-06T04:41:56;0.30;;;0.30;;
17848;SDS011;9050;48.746;9.232;2022-07-06T04:44:24;0.30;;;0.30;;
17848;SDS011;9050;48.746;9.232;2022-07-06T04:46:50;0.30;;;0.30;;
17848;SDS011;9050;48.746;9.232;2022-07-06T04:49:17;0.30;;;0.30;;
17848;SDS011;9050;48.746;9.232;2022-07-06T04:51:44;0.40;;;0.40;;
17848;SDS011;9050;48.746;9.232;2022-07-06T04:54:11;0.25;;;0.25;;
17848;SDS011;9050;48.746;9.232;2022-07-06T04:56:38;0.40;;;0.40;;
17848;SDS011;9050;48.746;9.232;2022-07-06T04:59:05;0.30;;;0.30;;
17848;SDS011;9050;48.746;9.232;2022-07-06T05:01:33;0.30;;;0.30;;
17848;SDS011;9050;48.746;9.232;2022-07-06T05:04:00;0.30;;;0.30;;
17848;SDS011;9050;48.746;9.232;2022-07-06T05:06:27;0.20;;;0.20;;
17848;SDS011;9050;48.746;9.232;2022-07-06T05:08:54;0.20;;;0.20;;
17848;SDS011;9050;48.746;9.232;2022-07-06T05:11:21;0.20;;;0.20;;
17848;SDS011;9050;48.746;9.232;2022-07-06T05:13:48;0.20;;;0.20;;
17848;SDS011;9050;48.746;9.232;2022-07-06T05:16:15;0.20;;;0.20;;
17848;SDS011;9050;48.746;9.232;2022-07-06T05:18:43;0.13;;;0.13;;
17848;SDS011;9050;48.746;9.232;2022-07-06T05:21:10;0.20;;;0.20;;
17848;SDS011;9050;48.746;9.232;2022-07-06T05:23:37;0.10;;;0.10;;
17848;SDS011;9050;48.746;9.232;2022-07-06T05:26:04;0.00;;;0.00;;
17848;SDS011;9050;48.746;9.232;2022-07-06T05:28:31;0.10;;;0.10;;
17848;SDS011;9050;48.746;9.232;2022-07-06T05:30:59;0.00;;;0.00;;
17848;SDS011;9050;48.746;9.232;2022-07-06T05:33:26;0.10;;;0.10;;
17848;SDS011;9050;48.746;9.232;2022-07-06T05:35:55;0.05;;;0.05;;
17848;SDS011;9050;48.746;9.232;2022-07-06T05:38:22;0.00;;;0.00;;
